Far Rockaway, NY (11695)

2:03 PM EDT on September 02, 2014 (GMT -0400)
Sheepshead Bay | Change Station
CLOSE
Current Station
Personal Weather Station
Location: Brooklyn, NY
Elevation: 13 ft
Nearby Weather Stations
Active Advisory: Air Quality Alert

Elev 13 ft 40.60 °N, 73.95 °W | Updated 14 minutes ago

Mostly Cloudy
Mostly Cloudy
90.5 °F
Feels Like 94 °F
N
4.0
Wind Variable Wind from SW
Gusts 13.0 mph

Today
High -- | Low -- °F
--% Chance of Precip.
Yesterday
High -- | Low -- °F
Precip. -- in
6:23 AM 7:26 PM
First Quarter, 53% visible
Pressure 29.88 in
Visibility 10.0 miles
Clouds Scattered Clouds 5500 ft
Mostly Cloudy 25000 ft
Heat Index 94 °F
Dew Point 68 °F
Humidity 47%
Rainfall 0.00 in
Snow Depth Not available.
UV 5 out of 12
Pollen 8.40 out of 12
Air Quality Not available.
Flu Activity Not available.
METAR KJFK 021751Z 19012KT 10SM SCT055 BKN250 33/21 A2988 RMK AO2 SLP118 T03280211 10333 20256 56017

More Conditions Fewer Conditions

Pressure 29.88 in
Visibility 10.0 miles
Clouds Scattered Clouds 5500 ft
Mostly Cloudy 25000 ft
Heat Index 94 °F
Dew Point 68 °F
Humidity 47%
Rainfall 0.00 in
Snow Depth Not available.
UV 5 out of 12
Pollen 8.40 out of 12
Air Quality Not available.
Flu Activity Not available.
METAR KJFK 021751Z 19012KT 10SM SCT055 BKN250 33/21 A2988 RMK AO2 SLP118 T03280211 10333 20256 56017

More Conditions Fewer Conditions

10-Day Weather Forecast

Almanac

Astronomy

Sep. 02, 2014 Rise Set
Actual Time 6:23 AM EDT 7:26 PM EDT
Civil Twilight 5:55 AM EDT 7:54 PM EDT
Nautical Twilight 5:22 AM EDT 8:27 PM EDT
Astronomical Twilight 4:47 AM EDT 9:01 PM EDT
Moon 2:07 PM EDT No Moon Set
Length of Visible Light 13h 58m
Length of Day
13h 02m
Tomorrow will be 2m 35s shorter.
First Quarter, 53% of the Moon is Illuminated
Today
First Quarter
Sep 8
Full
Sep 15
Last Quarter
Sep 24
New
Oct 1
First Quarter

Today's Extremes

State Highs State Lows

Community

WunderPhotos

Upload Photos

1,749,724 photos uploaded!

WunderBlogs® & News

Nearby

Snow Depth

Station Depth Elevation
No new snow has been reported.

Earthquake Activity

City Distance Mag. Time & Date
No recent earthquake activity has been reported nearby.
Minimum magnitude displayed is 2.5.

Coastal Water Temperatures

Place Temperature
Sandy Hook, NJ 78.1 °F
The Battery, NY 75.0 °F
Bergen Point West Reach, NJ 75.0 °F
Kings Point, NY 75.0 °F

Nearby Weather Stations